sensor_id;sensor_type;location;lat;lon;timestamp;pressure;altitude;pressure_sealevel;temperature;humidity
36190;BME280;22232;50.914;13.858;2023-03-25T00:00:15;96791.03;;;9.39;100.00
36190;BME280;22232;50.914;13.858;2023-03-25T00:02:48;96791.50;;;9.36;100.00
36190;BME280;22232;50.914;13.858;2023-03-25T00:05:18;96800.78;;;9.33;100.00
36190;BME280;22232;50.914;13.858;2023-03-25T00:07:49;96797.31;;;9.33;100.00
36190;BME280;22232;50.914;13.858;2023-03-25T00:10:18;96793.31;;;9.30;100.00
36190;BME280;22232;50.914;13.858;2023-03-25T00:12:45;96782.13;;;9.28;100.00
36190;BME280;22232;50.914;13.858;2023-03-25T00:15:13;96771.97;;;9.25;100.00
36190;BME280;22232;50.914;13.858;2023-03-25T00:17:42;96770.84;;;9.21;100.00
36190;BME280;22232;50.914;13.858;2023-03-25T00:20:10;96778.31;;;9.24;100.00
36190;BME280;22232;50.914;13.858;2023-03-25T00:22:39;96767.56;;;9.14;100.00
36190;BME280;22232;50.914;13.858;2023-03-25T00:25:10;96771.25;;;9.13;100.00
36190;BME280;22232;50.914;13.858;2023-03-25T00:27:39;96769.44;;;9.13;100.00
36190;BME280;22232;50.914;13.858;2023-03-25T00:30:07;96773.31;;;9.06;100.00
36190;BME280;22232;50.914;13.858;2023-03-25T00:32:35;96761.06;;;9.05;100.00
36190;BME280;22232;50.914;13.858;2023-03-25T00:35:03;96757.22;;;9.17;100.00
36190;BME280;22232;50.914;13.858;2023-03-25T00:37:31;96768.81;;;9.28;100.00
36190;BME280;22232;50.914;13.858;2023-03-25T00:39:59;96757.84;;;9.25;100.00
36190;BME280;22232;50.914;13.858;2023-03-25T00:42:27;96755.69;;;9.22;100.00
36190;BME280;22232;50.914;13.858;2023-03-25T00:44:54;96751.19;;;9.22;100.00
36190;BME280;22232;50.914;13.858;2023-03-25T00:47:22;96751.91;;;9.17;100.00
36190;BME280;22232;50.914;13.858;2023-03-25T00:49:50;96746.66;;;9.23;100.00
36190;BME280;22232;50.914;13.858;2023-03-25T00:52:18;96748.81;;;9.26;100.00
36190;BME280;22232;50.914;13.858;2023-03-25T00:54:49;96739.97;;;9.20;100.00
36190;BME280;22232;50.914;13.858;2023-03-25T00:57:20;96752.22;;;9.21;100.00
36190;BME280;22232;50.914;13.858;2023-03-25T00:59:48;96751.69;;;9.19;100.00
36190;BME280;22232;50.914;13.858;2023-03-25T01:02:17;96754.34;;;9.19;100.00
36190;BME280;22232;50.914;13.858;2023-03-25T01:04:48;96754.25;;;9.14;100.00
36190;BME280;22232;50.914;13.858;2023-03-25T01:07:17;96746.22;;;9.09;100.00
36190;BME280;22232;50.914;13.858;2023-03-25T01:09:45;96744.81;;;9.01;100.00
36190;BME280;22232;50.914;13.858;2023-03-25T01:12:15;96742.06;;;8.96;100.00
36190;BME280;22232;50.914;13.858;2023-03-25T01:14:42;96729.56;;;8.96;100.00
36190;BME280;22232;50.914;13.858;2023-03-25T01:17:10;96724.75;;;8.93;100.00
36190;BME280;22232;50.914;13.858;2023-03-25T01:19:38;96734.28;;;8.89;100.00
36190;BME280;22232;50.914;13.858;2023-03-25T01:22:05;96732.66;;;8.88;100.00
36190;BME280;22232;50.914;13.858;2023-03-25T01:24:33;96736.38;;;8.87;100.00
36190;BME280;22232;50.914;13.858;2023-03-25T01:27:00;96737.34;;;8.81;100.00
36190;BME280;22232;50.914;13.858;2023-03-25T01:29:28;96739.50;;;8.84;100.00
36190;BME280;22232;50.914;13.858;2023-03-25T01:31:57;96736.47;;;8.76;100.00
36190;BME280;22232;50.914;13.858;2023-03-25T01:34:25;96728.25;;;8.77;100.00
36190;BME280;22232;50.914;13.858;2023-03-25T01:36:52;96723.97;;;8.76;100.00
36190;BME280;22232;50.914;13.858;2023-03-25T01:39:22;96721.56;;;8.75;100.00
36190;BME280;22232;50.914;13.858;2023-03-25T01:41:49;96715.63;;;8.67;100.00
36190;BME280;22232;50.914;13.858;2023-03-25T01:46:50;96717.09;;;8.58;100.00
36190;BME280;22232;50.914;13.858;2023-03-25T01:51:56;96704.25;;;8.72;100.00
36190;BME280;22232;50.914;13.858;2023-03-25T01:54:26;96701.97;;;8.81;100.00
36190;BME280;22232;50.914;13.858;2023-03-25T01:56:54;96694.56;;;8.83;100.00
36190;BME280;22232;50.914;13.858;2023-03-25T01:59:24;96683.69;;;8.84;100.00
36190;BME280;22232;50.914;13.858;2023-03-25T02:01:55;96679.13;;;8.80;100.00
36190;BME280;22232;50.914;13.858;2023-03-25T02:04:54;96673.81;;;8.80;100.00
36190;BME280;22232;50.914;13.858;2023-03-25T02:07:31;96676.88;;;8.71;100.00
36190;BME280;22232;50.914;13.858;2023-03-25T02:10:03;96675.59;;;8.74;100.00
36190;BME280;22232;50.914;13.858;2023-03-25T02:12:31;96682.25;;;8.77;100.00
36190;BME280;22232;50.914;13.858;2023-03-25T02:15:00;96682.31;;;8.82;100.00
36190;BME280;22232;50.914;13.858;2023-03-25T02:39:49;96676.75;;;8.83;100.00
36190;BME280;22232;50.914;13.858;2023-03-25T02:45:33;96667.09;;;8.99;100.00
36190;BME280;22232;50.914;13.858;2023-03-25T02:48:02;96668.78;;;9.05;100.00
36190;BME280;22232;50.914;13.858;2023-03-25T02:50:37;96664.16;;;8.95;100.00
36190;BME280;22232;50.914;13.858;2023-03-25T02:53:13;96665.84;;;9.07;100.00
36190;BME280;22232;50.914;13.858;2023-03-25T02:55:44;96656.69;;;8.98;100.00
36190;BME280;22232;50.914;13.858;2023-03-25T02:58:16;96657.84;;;9.02;100.00
36190;BME280;22232;50.914;13.858;2023-03-25T03:00:48;96662.84;;;8.98;100.00
36190;BME280;22232;50.914;13.858;2023-03-25T03:03:17;96663.09;;;8.96;100.00
36190;BME280;22232;50.914;13.858;2023-03-25T03:05:49;96659.31;;;8.92;100.00
36190;BME280;22232;50.914;13.858;2023-03-25T03:08:52;96669.31;;;8.85;100.00
36190;BME280;22232;50.914;13.858;2023-03-25T03:11:27;96659.19;;;8.82;100.00
36190;BME280;22232;50.914;13.858;2023-03-25T03:16:55;96659.63;;;8.74;100.00
36190;BME280;22232;50.914;13.858;2023-03-25T03:19:51;96656.03;;;8.63;100.00
36190;BME280;22232;50.914;13.858;2023-03-25T03:22:40;96665.47;;;8.54;100.00
36190;BME280;22232;50.914;13.858;2023-03-25T03:25:18;96662.50;;;8.50;100.00
36190;BME280;22232;50.914;13.858;2023-03-25T03:27:57;96660.97;;;8.55;100.00
36190;BME280;22232;50.914;13.858;2023-03-25T03:33:46;96652.19;;;8.54;100.00
36190;BME280;22232;50.914;13.858;2023-03-25T03:36:20;96655.03;;;8.47;100.00
36190;BME280;22232;50.914;13.858;2023-03-25T03:39:40;96655.34;;;8.51;100.00
36190;BME280;22232;50.914;13.858;2023-03-25T03:41:46;96661.44;;;8.52;100.00
36190;BME280;22232;50.914;13.858;2023-03-25T03:44:18;96661.72;;;8.50;100.00
36190;BME280;22232;50.914;13.858;2023-03-25T03:46:54;96668.31;;;8.47;100.00
36190;BME280;22232;50.914;13.858;2023-03-25T03:49:29;96660.16;;;8.54;100.00
36190;BME280;22232;50.914;13.858;2023-03-25T03:52:10;96668.28;;;8.64;100.00
36190;BME280;22232;50.914;13.858;2023-03-25T03:55:03;96664.06;;;8.68;100.00
36190;BME280;22232;50.914;13.858;2023-03-25T03:57:42;96661.66;;;8.67;100.00
36190;BME280;22232;50.914;13.858;2023-03-25T04:00:16;96664.56;;;8.65;100.00
36190;BME280;22232;50.914;13.858;2023-03-25T04:02:49;96672.94;;;8.74;100.00
36190;BME280;22232;50.914;13.858;2023-03-25T04:05:21;96667.13;;;8.77;100.00
36190;BME280;22232;50.914;13.858;2023-03-25T04:07:55;96673.22;;;8.78;100.00
36190;BME280;22232;50.914;13.858;2023-03-25T04:10:38;96678.25;;;8.74;100.00
36190;BME280;22232;50.914;13.858;2023-03-25T04:13:10;96687.31;;;8.78;100.00
36190;BME280;22232;50.914;13.858;2023-03-25T04:15:40;96689.41;;;8.76;100.00
36190;BME280;22232;50.914;13.858;2023-03-25T04:18:08;96695.31;;;8.78;100.00
36190;BME280;22232;50.914;13.858;2023-03-25T04:20:36;96691.66;;;8.84;100.00
36190;BME280;22232;50.914;13.858;2023-03-25T04:23:11;96687.69;;;8.87;100.00
36190;BME280;22232;50.914;13.858;2023-03-25T04:25:43;96688.75;;;8.86;100.00
36190;BME280;22232;50.914;13.858;2023-03-25T04:28:14;96687.94;;;8.85;100.00
36190;BME280;22232;50.914;13.858;2023-03-25T04:30:45;96691.09;;;8.82;100.00
36190;BME280;22232;50.914;13.858;2023-03-25T04:33:12;96684.94;;;8.77;100.00
36190;BME280;22232;50.914;13.858;2023-03-25T04:35:40;96691.03;;;8.77;100.00
36190;BME280;22232;50.914;13.858;2023-03-25T04:38:08;96683.28;;;8.76;100.00
36190;BME280;22232;50.914;13.858;2023-03-25T04:40:35;96690.78;;;8.79;100.00
36190;BME280;22232;50.914;13.858;2023-03-25T04:43:06;96692.06;;;8.76;100.00
36190;BME280;22232;50.914;13.858;2023-03-25T04:45:34;96690.47;;;8.75;100.00
36190;BME280;22232;50.914;13.858;2023-03-25T04:48:02;96692.91;;;8.77;100.00
36190;BME280;22232;50.914;13.858;2023-03-25T04:50:32;96691.56;;;8.79;100.00
36190;BME280;22232;50.914;13.858;2023-03-25T04:53:00;96699.00;;;8.77;100.00
36190;BME280;22232;50.914;13.858;2023-03-25T04:55:27;96697.66;;;8.75;100.00
36190;BME280;22232;50.914;13.858;2023-03-25T04:57:56;96694.19;;;8.74;100.00
36190;BME280;22232;50.914;13.858;2023-03-25T05:00:24;96684.06;;;8.71;100.00
36190;BME280;22232;50.914;13.858;2023-03-25T05:02:53;96677.94;;;8.70;100.00
36190;BME280;22232;50.914;13.858;2023-03-25T05:05:23;96677.94;;;8.70;100.00
36190;BME280;22232;50.914;13.858;2023-03-25T05:07:52;96685.56;;;8.67;100.00
36190;BME280;22232;50.914;13.858;2023-03-25T05:10:23;96675.50;;;8.69;100.00
36190;BME280;22232;50.914;13.858;2023-03-25T05:13:01;96679.75;;;8.70;100.00
36190;BME280;22232;50.914;13.858;2023-03-25T05:15:30;96676.88;;;8.71;100.00
36190;BME280;22232;50.914;13.858;2023-03-25T05:17:58;96693.06;;;8.70;100.00
36190;BME280;22232;50.914;13.858;2023-03-25T05:20:26;96679.84;;;8.75;100.00
36190;BME280;22232;50.914;13.858;2023-03-25T05:22:54;96685.91;;;8.70;100.00
36190;BME280;22232;50.914;13.858;2023-03-25T05:25:23;96682.41;;;8.70;100.00
36190;BME280;22232;50.914;13.858;2023-03-25T05:27:51;96680.91;;;8.74;100.00
36190;BME280;22232;50.914;13.858;2023-03-25T05:30:18;96681.44;;;8.76;100.00
36190;BME280;22232;50.914;13.858;2023-03-25T05:32:46;96670.81;;;8.76;100.00
36190;BME280;22232;50.914;13.858;2023-03-25T05:35:22;96680.25;;;8.67;100.00
36190;BME280;22232;50.914;13.858;2023-03-25T05:37:53;96687.81;;;8.75;100.00
36190;BME280;22232;50.914;13.858;2023-03-25T05:40:22;96688.44;;;8.82;100.00
36190;BME280;22232;50.914;13.858;2023-03-25T05:42:50;96701.41;;;8.79;100.00
36190;BME280;22232;50.914;13.858;2023-03-25T05:45:21;96695.91;;;8.85;100.00
36190;BME280;22232;50.914;13.858;2023-03-25T05:47:49;96698.44;;;8.75;100.00
36190;BME280;22232;50.914;13.858;2023-03-25T05:50:17;96694.50;;;8.78;100.00
36190;BME280;22232;50.914;13.858;2023-03-25T05:52:45;96703.19;;;8.73;100.00
36190;BME280;22232;50.914;13.858;2023-03-25T05:55:18;96694.38;;;8.67;100.00
36190;BME280;22232;50.914;13.858;2023-03-25T05:57:47;96710.69;;;8.76;100.00
36190;BME280;22232;50.914;13.858;2023-03-25T06:00:17;96712.00;;;8.73;100.00
36190;BME280;22232;50.914;13.858;2023-03-25T06:02:50;96713.03;;;8.72;100.00
36190;BME280;22232;50.914;13.858;2023-03-25T06:05:18;96716.25;;;8.75;100.00
36190;BME280;22232;50.914;13.858;2023-03-25T06:07:50;96710.06;;;8.69;100.00
36190;BME280;22232;50.914;13.858;2023-03-25T06:10:22;96708.50;;;8.73;100.00
36190;BME280;22232;50.914;13.858;2023-03-25T06:12:51;96720.78;;;8.74;100.00
36190;BME280;22232;50.914;13.858;2023-03-25T06:15:20;96726.09;;;8.74;100.00
36190;BME280;22232;50.914;13.858;2023-03-25T06:17:56;96727.25;;;8.61;100.00
36190;BME280;22232;50.914;13.858;2023-03-25T06:20:23;96734.16;;;8.62;100.00
36190;BME280;22232;50.914;13.858;2023-03-25T06:22:51;96727.31;;;8.66;100.00
36190;BME280;22232;50.914;13.858;2023-03-25T06:25:19;96733.31;;;8.79;100.00
36190;BME280;22232;50.914;13.858;2023-03-25T06:27:48;96737.34;;;8.81;100.00
36190;BME280;22232;50.914;13.858;2023-03-25T06:30:19;96744.13;;;8.89;100.00
36190;BME280;22232;50.914;13.858;2023-03-25T06:32:47;96747.88;;;8.93;100.00
36190;BME280;22232;50.914;13.858;2023-03-25T06:35:18;96751.94;;;9.01;100.00
36190;BME280;22232;50.914;13.858;2023-03-25T06:37:47;96758.81;;;8.96;100.00
36190;BME280;22232;50.914;13.858;2023-03-25T06:40:39;96753.47;;;9.13;100.00
36190;BME280;22232;50.914;13.858;2023-03-25T06:43:06;96758.44;;;9.10;100.00
36190;BME280;22232;50.914;13.858;2023-03-25T06:45:52;96758.91;;;9.02;100.00
36190;BME280;22232;50.914;13.858;2023-03-25T06:48:29;96759.78;;;9.07;100.00
36190;BME280;22232;50.914;13.858;2023-03-25T06:50:56;96751.69;;;9.19;100.00
36190;BME280;22232;50.914;13.858;2023-03-25T06:53:24;96758.88;;;9.46;100.00
36190;BME280;22232;50.914;13.858;2023-03-25T06:55:52;96757.47;;;9.60;100.00
36190;BME280;22232;50.914;13.858;2023-03-25T06:58:22;96762.59;;;9.94;100.00
36190;BME280;22232;50.914;13.858;2023-03-25T07:00:53;96766.47;;;10.08;100.00
36190;BME280;22232;50.914;13.858;2023-03-25T07:03:21;96761.44;;;10.44;100.00
36190;BME280;22232;50.914;13.858;2023-03-25T07:05:48;96755.50;;;10.74;100.00
36190;BME280;22232;50.914;13.858;2023-03-25T07:08:16;96759.19;;;11.05;100.00
36190;BME280;22232;50.914;13.858;2023-03-25T07:10:44;96744.72;;;11.01;100.00
36190;BME280;22232;50.914;13.858;2023-03-25T07:13:11;96749.06;;;11.12;100.00
36190;BME280;22232;50.914;13.858;2023-03-25T07:15:39;96737.09;;;11.20;100.00
36190;BME280;22232;50.914;13.858;2023-03-25T07:18:07;96739.00;;;11.30;100.00
36190;BME280;22232;50.914;13.858;2023-03-25T07:20:34;96744.97;;;11.57;100.00
36190;BME280;22232;50.914;13.858;2023-03-25T07:23:02;96740.28;;;11.90;100.00
36190;BME280;22232;50.914;13.858;2023-03-25T07:25:29;96752.56;;;12.16;94.05
36190;BME280;22232;50.914;13.858;2023-03-25T07:27:56;96747.50;;;12.56;94.86
36190;BME280;22232;50.914;13.858;2023-03-25T07:30:24;96742.66;;;12.78;92.18
36190;BME280;22232;50.914;13.858;2023-03-25T07:32:52;96747.16;;;12.93;85.70
36190;BME280;22232;50.914;13.858;2023-03-25T07:35:19;96757.50;;;13.20;89.68
36190;BME280;22232;50.914;13.858;2023-03-25T07:37:48;96744.47;;;13.73;86.04
36190;BME280;22232;50.914;13.858;2023-03-25T07:40:15;96750.06;;;13.77;84.64
36190;BME280;22232;50.914;13.858;2023-03-25T07:42:43;96747.25;;;13.48;81.49
36190;BME280;22232;50.914;13.858;2023-03-25T07:45:21;96754.16;;;12.74;86.52
36190;BME280;22232;50.914;13.858;2023-03-25T07:47:51;96745.91;;;12.24;91.76
36190;BME280;22232;50.914;13.858;2023-03-25T07:50:21;96750.94;;;11.95;97.74
36190;BME280;22232;50.914;13.858;2023-03-25T07:52:52;96750.06;;;11.64;100.00
36190;BME280;22232;50.914;13.858;2023-03-25T07:55:19;96744.91;;;11.47;100.00
36190;BME280;22232;50.914;13.858;2023-03-25T07:57:47;96748.03;;;11.18;100.00
36190;BME280;22232;50.914;13.858;2023-03-25T08:00:15;96765.13;;;11.22;100.00
36190;BME280;22232;50.914;13.858;2023-03-25T08:02:42;96758.00;;;11.43;100.00
36190;BME280;22232;50.914;13.858;2023-03-25T08:05:10;96762.13;;;11.82;100.00
36190;BME280;22232;50.914;13.858;2023-03-25T08:07:38;96762.22;;;12.12;100.00
36190;BME280;22232;50.914;13.858;2023-03-25T08:10:06;96764.88;;;12.23;100.00
36190;BME280;22232;50.914;13.858;2023-03-25T08:12:34;96762.50;;;12.36;100.00
36190;BME280;22232;50.914;13.858;2023-03-25T08:15:03;96763.50;;;12.05;100.00
36190;BME280;22232;50.914;13.858;2023-03-25T08:17:30;96760.59;;;12.22;100.00
36190;BME280;22232;50.914;13.858;2023-03-25T08:19:58;96771.56;;;12.25;100.00
36190;BME280;22232;50.914;13.858;2023-03-25T08:22:27;96763.81;;;12.34;100.00
36190;BME280;22232;50.914;13.858;2023-03-25T08:24:54;96767.28;;;12.19;100.00
36190;BME280;22232;50.914;13.858;2023-03-25T08:27:22;96768.63;;;12.16;100.00
36190;BME280;22232;50.914;13.858;2023-03-25T08:29:50;96768.63;;;12.22;100.00
36190;BME280;22232;50.914;13.858;2023-03-25T08:32:23;96774.47;;;11.93;100.00
36190;BME280;22232;50.914;13.858;2023-03-25T08:34:50;96775.25;;;11.88;100.00
36190;BME280;22232;50.914;13.858;2023-03-25T08:37:18;96788.41;;;11.37;100.00
36190;BME280;22232;50.914;13.858;2023-03-25T08:39:46;96797.94;;;11.18;100.00
36190;BME280;22232;50.914;13.858;2023-03-25T08:42:16;96800.31;;;10.72;100.00
36190;BME280;22232;50.914;13.858;2023-03-25T08:44:44;96790.81;;;10.22;100.00
36190;BME280;22232;50.914;13.858;2023-03-25T08:47:12;96802.41;;;10.05;100.00
36190;BME280;22232;50.914;13.858;2023-03-25T08:49:39;96802.81;;;9.70;100.00
36190;BME280;22232;50.914;13.858;2023-03-25T08:52:07;96800.97;;;9.49;100.00
36190;BME280;22232;50.914;13.858;2023-03-25T08:54:35;96800.78;;;9.33;100.00
36190;BME280;22232;50.914;13.858;2023-03-25T08:57:02;96803.06;;;9.25;100.00
36190;BME280;22232;50.914;13.858;2023-03-25T08:59:30;96805.69;;;9.19;100.00
36190;BME280;22232;50.914;13.858;2023-03-25T09:01:57;96810.75;;;9.21;100.00
36190;BME280;22232;50.914;13.858;2023-03-25T09:04:28;96800.91;;;9.22;100.00
36190;BME280;22232;50.914;13.858;2023-03-25T09:06:55;96801.88;;;9.15;100.00
36190;BME280;22232;50.914;13.858;2023-03-25T09:09:37;96803.63;;;9.27;100.00
36190;BME280;22232;50.914;13.858;2023-03-25T09:12:06;96806.72;;;9.18;100.00
36190;BME280;22232;50.914;13.858;2023-03-25T09:14:34;96806.66;;;9.13;100.00
36190;BME280;22232;50.914;13.858;2023-03-25T09:17:01;96824.50;;;9.35;100.00
36190;BME280;22232;50.914;13.858;2023-03-25T09:19:29;96818.50;;;9.45;100.00
36190;BME280;22232;50.914;13.858;2023-03-25T09:21:57;96817.13;;;9.64;100.00
36190;BME280;22232;50.914;13.858;2023-03-25T09:24:24;96822.31;;;9.76;100.00
36190;BME280;22232;50.914;13.858;2023-03-25T09:26:52;96823.41;;;9.80;100.00
36190;BME280;22232;50.914;13.858;2023-03-25T09:29:19;96819.47;;;9.82;100.00
36190;BME280;22232;50.914;13.858;2023-03-25T09:31:47;96819.44;;;9.77;100.00
36190;BME280;22232;50.914;13.858;2023-03-25T09:34:14;96825.50;;;10.00;100.00
36190;BME280;22232;50.914;13.858;2023-03-25T09:36:42;96827.00;;;9.91;100.00
36190;BME280;22232;50.914;13.858;2023-03-25T09:39:12;96834.84;;;9.75;100.00
36190;BME280;22232;50.914;13.858;2023-03-25T09:47:41;96831.38;;;9.75;100.00
36190;BME280;22232;50.914;13.858;2023-03-25T09:50:15;96828.50;;;9.81;100.00
36190;BME280;22232;50.914;13.858;2023-03-25T09:52:54;96820.13;;;9.95;100.00
36190;BME280;22232;50.914;13.858;2023-03-25T09:55:26;96823.06;;;10.20;100.00
36190;BME280;22232;50.914;13.858;2023-03-25T09:58:03;96814.28;;;10.47;100.00
36190;BME280;22232;50.914;13.858;2023-03-25T10:00:40;96811.00;;;10.72;100.00
36190;BME280;22232;50.914;13.858;2023-03-25T10:03:22;96808.09;;;10.78;100.00
36190;BME280;22232;50.914;13.858;2023-03-25T10:06:01;96820.25;;;10.59;100.00
36190;BME280;22232;50.914;13.858;2023-03-25T10:08:35;96804.75;;;10.56;100.00
36190;BME280;22232;50.914;13.858;2023-03-25T10:14:19;96803.91;;;12.13;100.00
36190;BME280;22232;50.914;13.858;2023-03-25T10:20:05;96795.63;;;12.71;100.00
36190;BME280;22232;50.914;13.858;2023-03-25T10:25:49;96788.41;;;12.67;100.00
36190;BME280;22232;50.914;13.858;2023-03-25T10:28:27;96796.44;;;12.82;100.00
36190;BME280;22232;50.914;13.858;2023-03-25T10:30:54;96784.94;;;12.66;100.00
36190;BME280;22232;50.914;13.858;2023-03-25T10:35:57;96791.03;;;13.02;100.00
36190;BME280;22232;50.914;13.858;2023-03-25T10:38:29;96781.28;;;13.47;100.00
36190;BME280;22232;50.914;13.858;2023-03-25T10:41:32;96768.69;;;13.48;100.00
36190;BME280;22232;50.914;13.858;2023-03-25T10:44:09;96778.19;;;13.09;100.00
36190;BME280;22232;50.914;13.858;2023-03-25T10:46:47;96763.22;;;13.79;100.00
36190;BME280;22232;50.914;13.858;2023-03-25T10:49:19;96775.22;;;14.26;100.00
36190;BME280;22232;50.914;13.858;2023-03-25T10:51:50;96768.75;;;14.32;100.00
36190;BME280;22232;50.914;13.858;2023-03-25T10:54:26;96753.84;;;13.76;98.71
36190;BME280;22232;50.914;13.858;2023-03-25T10:56:58;96755.59;;;13.41;100.00
36190;BME280;22232;50.914;13.858;2023-03-25T10:59:36;96751.16;;;12.96;100.00
36190;BME280;22232;50.914;13.858;2023-03-25T11:02:18;96767.00;;;12.61;100.00
36190;BME280;22232;50.914;13.858;2023-03-25T11:04:49;96757.38;;;12.09;100.00
36190;BME280;22232;50.914;13.858;2023-03-25T11:07:25;96768.06;;;12.09;100.00
36190;BME280;22232;50.914;13.858;2023-03-25T11:10:15;96761.41;;;12.58;100.00
36190;BME280;22232;50.914;13.858;2023-03-25T11:12:43;96755.44;;;13.02;100.00
36190;BME280;22232;50.914;13.858;2023-03-25T11:15:19;96743.69;;;13.68;100.00
36190;BME280;22232;50.914;13.858;2023-03-25T11:17:55;96739.91;;;13.74;97.92
36190;BME280;22232;50.914;13.858;2023-03-25T11:20:34;96738.03;;;13.74;100.00
36190;BME280;22232;50.914;13.858;2023-03-25T11:23:06;96726.78;;;14.46;99.50
36190;BME280;22232;50.914;13.858;2023-03-25T11:25:38;96731.19;;;14.66;95.20
36190;BME280;22232;50.914;13.858;2023-03-25T11:28:09;96732.31;;;13.86;84.66
36190;BME280;22232;50.914;13.858;2023-03-25T11:33:41;96741.31;;;13.61;100.00
36190;BME280;22232;50.914;13.858;2023-03-25T11:38:46;96752.19;;;13.80;96.72
36190;BME280;22232;50.914;13.858;2023-03-25T11:41:17;96733.19;;;13.82;89.68
36190;BME280;22232;50.914;13.858;2023-03-25T11:43:47;96726.84;;;13.57;92.30
36190;BME280;22232;50.914;13.858;2023-03-25T11:46:17;96722.50;;;13.06;93.75
36190;BME280;22232;50.914;13.858;2023-03-25T11:48:47;96739.13;;;12.93;90.02
36190;BME280;22232;50.914;13.858;2023-03-25T11:51:28;96737.28;;;12.89;89.31
36190;BME280;22232;50.914;13.858;2023-03-25T11:54:04;96736.22;;;12.74;90.17
36190;BME280;22232;50.914;13.858;2023-03-25T11:56:38;96740.78;;;12.74;96.59
36190;BME280;22232;50.914;13.858;2023-03-25T11:59:16;96738.66;;;12.60;95.29
36190;BME280;22232;50.914;13.858;2023-03-25T12:01:46;96720.22;;;12.49;91.33
36190;BME280;22232;50.914;13.858;2023-03-25T12:04:20;96714.00;;;12.89;94.31
36190;BME280;22232;50.914;13.858;2023-03-25T12:06:55;96710.31;;;12.59;90.23
36190;BME280;22232;50.914;13.858;2023-03-25T12:09:25;96707.66;;;12.13;87.01
36190;BME280;22232;50.914;13.858;2023-03-25T12:21:17;96697.75;;;12.50;95.85
36190;BME280;22232;50.914;13.858;2023-03-25T12:29:28;96681.63;;;12.85;94.37
36190;BME280;22232;50.914;13.858;2023-03-25T12:43:58;96671.06;;;14.38;75.14
36190;BME280;22232;50.914;13.858;2023-03-25T12:46:36;96662.78;;;14.87;71.45
36190;BME280;22232;50.914;13.858;2023-03-25T12:52:23;96654.88;;;15.39;67.84
36190;BME280;22232;50.914;13.858;2023-03-25T12:58:02;96650.31;;;14.97;61.67
36190;BME280;22232;50.914;13.858;2023-03-25T13:00:54;96660.78;;;14.74;64.66
36190;BME280;22232;50.914;13.858;2023-03-25T13:03:47;96663.16;;;14.22;67.29
36190;BME280;22232;50.914;13.858;2023-03-25T13:06:46;96666.41;;;14.19;70.83
36190;BME280;22232;50.914;13.858;2023-03-25T13:09:32;96658.03;;;13.58;76.24
36190;BME280;22232;50.914;13.858;2023-03-25T13:12:09;96673.72;;;13.30;78.29
36190;BME280;22232;50.914;13.858;2023-03-25T13:15:35;96654.75;;;13.66;83.29
36190;BME280;22232;50.914;13.858;2023-03-25T13:17:50;96653.00;;;14.19;81.62
36190;BME280;22232;50.914;13.858;2023-03-25T13:20:23;96647.34;;;14.50;74.61
36190;BME280;22232;50.914;13.858;2023-03-25T13:22:55;96638.41;;;14.31;74.13
36190;BME280;22232;50.914;13.858;2023-03-25T13:28:14;96646.34;;;13.38;74.02
36190;BME280;22232;50.914;13.858;2023-03-25T13:30:45;96636.78;;;13.17;72.53
36190;BME280;22232;50.914;13.858;2023-03-25T13:33:26;96645.25;;;12.84;78.34
36190;BME280;22232;50.914;13.858;2023-03-25T13:36:04;96651.03;;;13.02;81.92
36190;BME280;22232;50.914;13.858;2023-03-25T13:38:42;96647.34;;;12.93;78.79
36190;BME280;22232;50.914;13.858;2023-03-25T13:41:28;96636.91;;;12.91;83.23
36190;BME280;22232;50.914;13.858;2023-03-25T13:46:36;96637.59;;;13.27;88.65
36190;BME280;22232;50.914;13.858;2023-03-25T13:49:12;96638.03;;;13.40;86.05
36190;BME280;22232;50.914;13.858;2023-03-25T13:51:43;96636.84;;;13.56;86.28
36190;BME280;22232;50.914;13.858;2023-03-25T13:54:18;96643.00;;;13.57;88.68
36190;BME280;22232;50.914;13.858;2023-03-25T14:02:39;96650.16;;;13.71;76.56
36190;BME280;22232;50.914;13.858;2023-03-25T14:05:34;96640.88;;;13.53;77.48
36190;BME280;22232;50.914;13.858;2023-03-25T14:13:43;96649.34;;;13.71;73.13
36190;BME280;22232;50.914;13.858;2023-03-25T14:16:14;96637.88;;;13.65;79.26
36190;BME280;22232;50.914;13.858;2023-03-25T14:18:47;96644.00;;;13.71;72.17
36190;BME280;22232;50.914;13.858;2023-03-25T14:24:46;96636.19;;;14.09;78.32
36190;BME280;22232;50.914;13.858;2023-03-25T14:26:54;96626.16;;;14.19;68.20
36190;BME280;22232;50.914;13.858;2023-03-25T14:29:41;96621.03;;;14.23;68.91
36190;BME280;22232;50.914;13.858;2023-03-25T14:34:45;96611.06;;;13.99;66.18
36190;BME280;22232;50.914;13.858;2023-03-25T14:37:24;96619.28;;;14.08;67.04
36190;BME280;22232;50.914;13.858;2023-03-25T14:40:01;96622.94;;;14.22;69.55
36190;BME280;22232;50.914;13.858;2023-03-25T14:42:58;96595.72;;;14.05;63.68
36190;BME280;22232;50.914;13.858;2023-03-25T14:57:05;96689.22;;;10.98;100.00
36190;BME280;22232;50.914;13.858;2023-03-25T14:59:40;96703.00;;;10.74;100.00
36190;BME280;22232;50.914;13.858;2023-03-25T15:02:26;96685.88;;;10.65;100.00
36190;BME280;22232;50.914;13.858;2023-03-25T15:07:43;96692.25;;;10.64;100.00
36190;BME280;22232;50.914;13.858;2023-03-25T15:10:27;96692.78;;;10.61;100.00
36190;BME280;22232;50.914;13.858;2023-03-25T15:13:09;96677.81;;;10.55;100.00
36190;BME280;22232;50.914;13.858;2023-03-25T15:26:39;96648.09;;;10.89;99.60
36190;BME280;22232;50.914;13.858;2023-03-25T15:29:44;96644.47;;;11.25;94.78
36190;BME280;22232;50.914;13.858;2023-03-25T15:38:07;96652.03;;;11.59;82.02
36190;BME280;22232;50.914;13.858;2023-03-25T15:44:18;96654.91;;;11.27;80.66